createdAt,value
2022-12-01T00:01:57.741Z,102190.50
2022-12-01T00:04:24.132Z,102189.03
2022-12-01T00:06:50.436Z,102185.88
2022-12-01T00:09:19.924Z,102181.16
2022-12-01T00:11:46.760Z,102177.84
2022-12-01T00:14:13.107Z,102181.00
2022-12-01T00:16:39.480Z,102180.50
2022-12-01T00:19:05.915Z,102178.84
2022-12-01T00:21:32.264Z,102185.50
2022-12-01T00:23:58.576Z,102184.53
2022-12-01T00:26:24.904Z,102187.34
2022-12-01T00:28:51.221Z,102185.88
2022-12-01T00:31:17.658Z,102186.50
2022-12-01T00:33:43.938Z,102188.00
2022-12-01T00:36:10.412Z,102195.06
2022-12-01T00:38:37.045Z,102185.34
2022-12-01T00:41:03.363Z,102192.22
2022-12-01T00:43:29.673Z,102187.53
2022-12-01T00:45:56.086Z,102187.53
2022-12-01T00:48:22.524Z,102181.53
2022-12-01T00:50:49.188Z,102183.84
2022-12-01T00:53:15.545Z,102193.03
2022-12-01T00:55:41.887Z,102187.53
2022-12-01T00:58:08.124Z,102188.38
2022-12-01T01:00:34.523Z,102194.91
2022-12-01T01:03:00.948Z,102189.88
2022-12-01T01:05:27.503Z,102186.50
2022-12-01T01:07:53.909Z,102193.56
2022-12-01T01:10:20.272Z,102195.88
2022-12-01T01:12:46.675Z,102186.03
2022-12-01T01:15:13.260Z,102191.06
2022-12-01T01:17:39.554Z,102191.38
2022-12-01T01:20:05.871Z,102185.72
2022-12-01T01:22:32.141Z,102183.03
2022-12-01T01:24:58.439Z,102178.00
2022-12-01T01:27:25.003Z,102197.06
2022-12-01T01:29:51.305Z,102193.56
2022-12-01T01:32:17.635Z,102193.72
2022-12-01T01:34:44.117Z,102187.53
2022-12-01T01:37:10.497Z,102191.22
2022-12-01T01:39:37.145Z,102179.69
2022-12-01T01:42:03.519Z,102191.06
2022-12-01T01:44:29.916Z,102183.03
2022-12-01T01:46:56.257Z,102185.19
2022-12-01T01:49:22.544Z,102191.88
2022-12-01T01:51:49.181Z,102191.56
2022-12-01T01:54:15.555Z,102188.88
2022-12-01T01:56:41.896Z,102194.22
2022-12-01T01:59:08.214Z,102192.56
2022-12-01T02:01:34.682Z,102193.22
2022-12-01T02:04:05.928Z,102200.91
2022-12-01T02:06:32.898Z,102193.75
2022-12-01T02:08:59.695Z,102191.06
2022-12-01T02:11:27.832Z,102201.91
2022-12-01T02:13:54.736Z,102196.91
2022-12-01T02:16:21.218Z,102188.38
2022-12-01T02:18:47.675Z,102187.53
2022-12-01T02:21:14.377Z,102196.56
2022-12-01T02:23:41.011Z,102197.41
2022-12-01T02:26:07.358Z,102193.91
2022-12-01T02:28:33.739Z,102191.72
2022-12-01T02:31:00.382Z,102188.56
2022-12-01T02:33:26.804Z,102195.41
2022-12-01T02:35:53.257Z,102192.88
2022-12-01T02:38:19.656Z,102183.03
2022-12-01T02:40:46.096Z,102190.38
2022-12-01T02:43:12.532Z,102191.88
2022-12-01T02:45:38.834Z,102182.53
2022-12-01T02:48:05.160Z,102175.19
2022-12-01T02:50:31.486Z,102177.88
2022-12-01T02:52:57.788Z,102174.88
2022-12-01T02:55:24.345Z,102181.38
2022-12-01T02:57:50.772Z,102169.53
2022-12-01T03:00:17.036Z,102173.84
2022-12-01T03:02:43.541Z,102177.22
2022-12-01T03:05:10.096Z,102175.19
2022-12-01T03:07:36.570Z,102173.84
2022-12-01T03:10:02.903Z,102167.00
2022-12-01T03:12:29.235Z,102173.38
2022-12-01T03:14:55.559Z,102167.50
2022-12-01T03:17:21.968Z,102175.69
2022-12-01T03:19:48.560Z,102178.56
2022-12-01T03:22:14.991Z,102171.69
2022-12-01T03:24:41.321Z,102178.88
2022-12-01T03:27:07.853Z,102181.03
2022-12-01T03:29:34.167Z,102177.03
2022-12-01T03:32:00.470Z,102174.72
2022-12-01T03:34:26.813Z,102180.88
2022-12-01T03:36:53.249Z,102171.34
2022-12-01T03:39:19.669Z,102171.50
2022-12-01T03:41:46.213Z,102177.22
2022-12-01T03:44:12.590Z,102181.56
2022-12-01T03:46:39.202Z,102185.22
2022-12-01T03:49:05.646Z,102182.19
2022-12-01T03:51:32.004Z,102177.22
2022-12-01T03:53:58.459Z,102176.22
2022-12-01T03:56:24.766Z,102176.03
2022-12-01T03:58:51.096Z,102171.88
2022-12-01T04:01:17.465Z,102174.34
2022-12-01T04:03:43.849Z,102182.19
2022-12-01T04:06:10.087Z,102180.88
2022-12-01T04:08:36.504Z,102182.88
2022-12-01T04:11:02.879Z,102179.03
2022-12-01T04:13:29.317Z,102175.53
2022-12-01T04:15:55.753Z,102180.22
2022-12-01T04:18:22.125Z,102169.53
2022-12-01T04:20:48.664Z,102175.03
2022-12-01T04:23:15.117Z,102174.72
2022-12-01T04:25:41.498Z,102172.38
2022-12-01T04:28:07.789Z,102182.41
2022-12-01T04:30:34.155Z,102188.06
2022-12-01T04:33:00.737Z,102185.22
2022-12-01T04:35:27.089Z,102190.91
2022-12-01T04:37:53.513Z,102191.56
2022-12-01T04:40:19.807Z,102194.06
2022-12-01T04:42:46.146Z,102190.75
2022-12-01T04:45:12.624Z,102188.91
2022-12-01T04:47:38.968Z,102185.88
2022-12-01T04:50:05.392Z,102192.91
2022-12-01T04:52:35.273Z,102199.09
2022-12-01T04:55:02.103Z,102206.44
2022-12-01T04:57:28.435Z,102205.94
2022-12-01T04:59:54.741Z,102210.63
2022-12-01T05:02:21.092Z,102207.25
2022-12-01T05:04:47.432Z,102208.13
2022-12-01T05:07:13.854Z,102208.44
2022-12-01T05:09:40.280Z,102215.28
2022-12-01T05:12:06.725Z,102210.94
2022-12-01T05:14:33.108Z,102211.28
2022-12-01T05:16:59.432Z,102216.63
2022-12-01T05:19:25.863Z,102212.78
2022-12-01T05:21:52.220Z,102202.44
2022-12-01T05:24:18.567Z,102211.97
2022-12-01T05:26:44.931Z,102208.44
2022-12-01T05:29:11.392Z,102212.97
2022-12-01T05:31:37.937Z,102219.13
2022-12-01T05:34:04.495Z,102211.63
2022-12-01T05:36:30.754Z,102221.31
2022-12-01T05:38:57.104Z,102218.78
2022-12-01T05:41:23.428Z,102218.13
2022-12-01T05:43:50.028Z,102218.97
2022-12-01T05:46:16.481Z,102216.28
2022-12-01T05:48:42.872Z,102210.28
2022-12-01T05:51:09.186Z,102205.75
2022-12-01T05:53:35.679Z,102208.09
2022-12-01T05:56:02.035Z,102201.25
2022-12-01T05:58:28.542Z,102201.75
2022-12-01T06:00:55.110Z,102202.59
2022-12-01T06:03:21.572Z,102204.25
2022-12-01T06:05:47.950Z,102203.94
2022-12-01T06:08:14.283Z,102206.94
2022-12-01T06:10:40.565Z,102201.59
2022-12-01T06:13:07.168Z,102207.44
2022-12-01T06:15:33.517Z,102207.78
2022-12-01T06:17:59.973Z,102204.09
2022-12-01T06:20:26.532Z,102205.75
2022-12-01T06:22:52.818Z,102216.63
2022-12-01T06:25:19.260Z,102211.09
2022-12-01T06:27:45.716Z,102210.09
2022-12-01T06:30:12.008Z,102219.28
2022-12-01T06:32:38.586Z,102212.44
2022-12-01T06:35:04.905Z,102214.28
2022-12-01T06:37:31.285Z,102217.13
2022-12-01T06:39:57.682Z,102219.63
2022-12-01T06:42:24.054Z,102223.13
2022-12-01T06:44:50.438Z,102213.44
2022-12-01T06:47:16.887Z,102217.63
2022-12-01T06:49:43.303Z,102218.63
2022-12-01T06:52:09.695Z,102224.13
2022-12-01T06:54:36.172Z,102227.66
2022-12-01T06:57:02.514Z,102233.16
2022-12-01T06:59:28.930Z,102243.00
2022-12-01T07:01:55.590Z,102243.00
2022-12-01T07:04:22.019Z,102248.19
2022-12-01T07:06:48.314Z,102245.50
2022-12-01T07:09:14.646Z,102256.34
2022-12-01T07:11:40.989Z,102256.19
2022-12-01T07:14:07.352Z,102249.50
2022-12-01T07:16:33.783Z,102260.88
2022-12-01T07:19:00.276Z,102260.88
2022-12-01T07:21:26.751Z,102257.53
2022-12-01T07:23:53.122Z,102263.03
2022-12-01T07:26:19.436Z,102259.34
2022-12-01T07:28:45.807Z,102262.88
2022-12-01T07:31:12.248Z,102266.22
2022-12-01T07:33:38.740Z,102268.69
2022-12-01T07:36:05.079Z,102270.81
2022-12-01T07:38:31.492Z,102270.66
2022-12-01T07:40:57.774Z,102262.94
2022-12-01T07:43:24.110Z,102265.13
2022-12-01T07:45:50.392Z,102266.97
2022-12-01T07:48:16.655Z,102262.28
2022-12-01T07:50:43.136Z,102255.44
2022-12-01T07:53:09.463Z,102259.13
2022-12-01T07:55:35.975Z,102260.47
2022-12-01T07:58:02.527Z,102256.09
2022-12-01T08:00:28.867Z,102253.97
2022-12-01T08:02:55.307Z,102257.44
2022-12-01T08:05:28.950Z,102262.63
2022-12-01T08:07:55.401Z,102266.97
2022-12-01T08:10:21.888Z,102266.00
2022-12-01T08:12:48.424Z,102269.47
2022-12-01T08:15:14.777Z,102270.34
2022-12-01T08:17:41.307Z,102268.50
2022-12-01T08:20:08.207Z,102266.81
2022-12-01T08:22:34.550Z,102270.00
2022-12-01T08:25:00.874Z,102272.50
2022-12-01T08:27:27.202Z,102277.84
2022-12-01T08:29:53.894Z,102269.81
2022-12-01T08:32:20.543Z,102271.50
2022-12-01T08:34:52.990Z,102273.06
2022-12-01T08:37:19.777Z,102275.00
2022-12-01T08:39:46.108Z,102269.66
2022-12-01T08:42:12.433Z,102281.06
2022-12-01T08:44:38.850Z,102278.41
2022-12-01T08:47:05.170Z,102280.06
2022-12-01T08:49:31.764Z,102278.69
2022-12-01T08:51:58.083Z,102282.72
2022-12-01T08:54:24.643Z,102279.22
2022-12-01T08:56:50.986Z,102282.03
2022-12-01T08:59:17.566Z,102285.53
2022-12-01T09:01:43.971Z,102291.59
2022-12-01T09:04:10.327Z,102296.75
2022-12-01T09:06:36.711Z,102290.59
2022-12-01T09:09:03.030Z,102293.09
2022-12-01T09:11:29.430Z,102298.59
2022-12-01T09:13:55.792Z,102298.44
2022-12-01T09:16:22.258Z,102294.75
2022-12-01T09:18:48.730Z,102304.59
2022-12-01T09:21:15.217Z,102294.06
2022-12-01T09:23:41.637Z,102303.09
2022-12-01T09:26:13.236Z,102297.59
2022-12-01T09:28:39.986Z,102293.09
2022-12-01T09:31:06.464Z,102293.59
2022-12-01T09:33:33.759Z,102295.78
2022-12-01T09:36:00.084Z,102297.59
2022-12-01T09:38:26.542Z,102292.94
2022-12-01T09:40:53.057Z,102287.75
2022-12-01T09:43:19.495Z,102278.88
2022-12-01T09:45:45.849Z,102275.38
2022-12-01T09:48:12.220Z,102277.22
2022-12-01T09:50:38.541Z,102276.53
2022-12-01T09:53:05.865Z,102271.88
2022-12-01T09:55:32.153Z,102264.03
2022-12-01T09:57:58.517Z,102261.19
2022-12-01T10:00:24.904Z,102268.38
2022-12-01T10:02:51.364Z,102259.69
2022-12-01T10:05:17.627Z,102253.84
2022-12-01T10:07:44.206Z,102262.53
2022-12-01T10:10:10.642Z,102262.38
2022-12-01T10:12:37.101Z,102255.19
2022-12-01T10:15:03.450Z,102255.19
2022-12-01T10:17:29.929Z,102252.50
2022-12-01T10:19:56.383Z,102256.19
2022-12-01T10:22:22.668Z,102254.38
2022-12-01T10:24:49.271Z,102255.19
2022-12-01T10:27:15.689Z,102252.50
2022-12-01T10:29:47.232Z,102248.66
2022-12-01T10:32:14.065Z,102250.53
2022-12-01T10:34:40.622Z,102256.53
2022-12-01T10:37:07.027Z,102250.19
2022-12-01T10:39:33.413Z,102250.00
2022-12-01T10:41:59.712Z,102243.69
2022-12-01T10:44:25.997Z,102242.84
2022-12-01T10:46:52.435Z,102248.03
2022-12-01T10:49:19.035Z,102238.00
2022-12-01T10:51:45.400Z,102238.53
2022-12-01T10:54:11.780Z,102233.81
2022-12-01T10:56:38.106Z,102228.31
2022-12-01T10:59:04.469Z,102229.50
2022-12-01T11:01:30.915Z,102228.16
2022-12-01T11:03:57.563Z,102220.47
2022-12-01T11:06:23.944Z,102224.31
2022-12-01T11:08:50.295Z,102219.44
2022-12-01T11:11:16.666Z,102215.44
2022-12-01T11:13:42.942Z,102221.94
2022-12-01T11:16:09.241Z,102220.78
2022-12-01T11:18:35.826Z,102216.09
2022-12-01T11:21:02.196Z,102215.59
2022-12-01T11:23:28.875Z,102212.56
2022-12-01T11:25:55.273Z,102207.72
2022-12-01T11:28:21.604Z,102205.53
2022-12-01T11:30:51.240Z,102211.38
2022-12-01T11:33:21.607Z,102212.88
2022-12-01T11:35:48.033Z,102210.84
2022-12-01T11:38:29.173Z,102205.81
2022-12-01T11:40:55.851Z,102208.31
2022-12-01T11:43:22.316Z,102209.66
2022-12-01T11:45:48.656Z,102208.47
2022-12-01T11:48:14.987Z,102201.13
2022-12-01T11:50:41.348Z,102203.44
2022-12-01T11:53:07.715Z,102202.25
2022-12-01T11:55:34.154Z,102204.59
2022-12-01T11:58:01.645Z,102200.56
2022-12-01T12:00:28.232Z,102204.91
2022-12-01T12:02:54.591Z,102203.72
2022-12-01T12:05:20.980Z,102206.91
2022-12-01T12:07:47.321Z,102208.38
2022-12-01T12:10:13.744Z,102201.03
2022-12-01T12:12:40.153Z,102203.38
2022-12-01T12:15:06.469Z,102194.31
2022-12-01T12:17:32.860Z,102192.31
2022-12-01T12:20:07.531Z,102193.81
2022-12-01T12:22:34.839Z,102189.94
2022-12-01T12:25:01.159Z,102195.13
2022-12-01T12:27:27.715Z,102191.09
2022-12-01T12:29:54.436Z,102191.75
2022-12-01T12:32:21.037Z,102186.38
2022-12-01T12:34:47.550Z,102187.88
2022-12-01T12:37:13.948Z,102191.22
2022-12-01T12:39:40.271Z,102184.22
2022-12-01T12:42:07.338Z,102185.69
2022-12-01T12:44:37.000Z,102188.84
2022-12-01T12:47:04.038Z,102186.81
2022-12-01T12:49:30.627Z,102189.31
2022-12-01T12:51:57.097Z,102190.81
2022-12-01T12:54:23.707Z,102189.81
2022-12-01T12:56:50.140Z,102187.63
2022-12-01T12:59:16.468Z,102189.75
2022-12-01T13:01:42.871Z,102189.34
2022-12-01T13:04:09.318Z,102188.03
2022-12-01T13:06:35.634Z,102185.59
2022-12-01T13:09:02.359Z,102188.13
2022-12-01T13:11:28.664Z,102189.03
2022-12-01T13:13:54.993Z,102196.63
2022-12-01T13:16:21.368Z,102190.00
2022-12-01T13:18:47.859Z,102196.28
2022-12-01T13:21:14.291Z,102196.84
2022-12-01T13:23:40.663Z,102192.22
2022-12-01T13:26:07.088Z,102191.13
2022-12-01T13:28:33.346Z,102185.84
2022-12-01T13:30:59.749Z,102186.09
2022-12-01T13:33:26.148Z,102185.16
2022-12-01T13:36:13.737Z,102185.63
2022-12-01T13:38:38.907Z,102181.16
2022-12-01T13:41:05.682Z,102177.28
2022-12-01T13:43:32.099Z,102178.38
2022-12-01T13:45:58.508Z,102180.69
2022-12-01T13:48:24.804Z,102178.56
2022-12-01T13:50:51.247Z,102181.31
2022-12-01T13:53:17.669Z,102176.38
2022-12-01T13:55:43.964Z,102166.94
2022-12-01T13:58:10.370Z,102171.31
2022-12-01T14:00:36.884Z,102172.78
2022-12-01T14:03:03.290Z,102170.97
2022-12-01T14:05:29.748Z,102171.44
2022-12-01T14:07:56.175Z,102167.97
2022-12-01T14:10:22.561Z,102159.53
2022-12-01T14:12:48.933Z,102162.66
2022-12-01T14:15:15.406Z,102160.81
2022-12-01T14:17:41.862Z,102160.41
2022-12-01T14:20:08.400Z,102163.75
2022-12-01T14:22:34.915Z,102164.84
2022-12-01T14:25:01.586Z,102167.34
2022-12-01T14:27:28.441Z,102166.31
2022-12-01T14:29:54.786Z,102170.28
2022-12-01T14:32:21.171Z,102163.50
2022-12-01T14:34:47.807Z,102160.38
2022-12-01T14:37:14.430Z,102163.94
2022-12-01T14:39:40.921Z,102160.84
2022-12-01T14:42:07.202Z,102162.50
2022-12-01T14:44:33.651Z,102160.25
2022-12-01T14:47:00.240Z,102163.34
2022-12-01T14:49:26.619Z,102155.28
2022-12-01T14:51:52.915Z,102151.38
2022-12-01T14:54:19.276Z,102156.34
2022-12-01T14:56:45.593Z,102163.41
2022-12-01T14:59:11.898Z,102162.75
2022-12-01T15:01:38.441Z,102153.88
2022-12-01T15:04:04.859Z,102150.97
2022-12-01T15:06:31.160Z,102156.56
2022-12-01T15:09:25.011Z,102151.38
2022-12-01T15:11:44.112Z,102157.56
2022-12-01T15:14:11.750Z,102156.56
2022-12-01T15:16:38.341Z,102149.31
2022-12-01T15:19:04.857Z,102152.19
2022-12-01T15:21:31.246Z,102146.44
2022-12-01T15:23:57.593Z,102151.19
2022-12-01T15:26:24.040Z,102152.00
2022-12-01T15:28:50.362Z,102164.22
2022-12-01T15:31:16.847Z,102160.91
2022-12-01T15:33:43.347Z,102158.84
2022-12-01T15:36:09.708Z,102160.13
2022-12-01T15:38:36.079Z,102159.50
2022-12-01T15:43:48.810Z,102162.56
2022-12-01T15:46:15.238Z,102155.53
2022-12-01T15:48:41.589Z,102159.88
2022-12-01T15:51:08.512Z,102163.59
2022-12-01T15:53:34.841Z,102160.72
2022-12-01T15:56:01.185Z,102158.22
2022-12-01T15:58:27.468Z,102163.41
2022-12-01T16:00:53.884Z,102161.09
2022-12-01T16:03:20.235Z,102163.13
2022-12-01T16:05:46.572Z,102159.81
2022-12-01T16:08:13.973Z,102157.31
2022-12-01T16:10:40.638Z,102168.09
2022-12-01T16:13:07.064Z,102164.78
2022-12-01T16:15:33.368Z,102164.78
2022-12-01T16:17:59.783Z,102167.22
2022-12-01T16:20:26.371Z,102168.09
2022-12-01T16:22:52.678Z,102156.69
2022-12-01T16:25:19.023Z,102163.94
2022-12-01T16:27:45.441Z,102159.38
2022-12-01T16:30:11.776Z,102165.16
2022-12-01T16:32:38.074Z,102162.47
2022-12-01T16:35:04.380Z,102169.88
2022-12-01T16:37:30.940Z,102161.22
2022-12-01T16:39:57.287Z,102175.72
2022-12-01T16:42:23.600Z,102170.53
2022-12-01T16:44:50.443Z,102172.56
2022-12-01T16:47:17.054Z,102171.09
2022-12-01T16:49:43.457Z,102169.44
2022-12-01T16:52:36.539Z,102168.22
2022-12-01T16:54:56.088Z,102162.22
2022-12-01T16:57:22.383Z,102151.66
2022-12-01T16:59:48.713Z,102166.31
2022-12-01T17:02:15.100Z,102161.97
2022-12-01T17:04:41.523Z,102163.16
2022-12-01T17:07:08.113Z,102160.28
2022-12-01T17:09:34.503Z,102165.03
2022-12-01T17:12:00.846Z,102166.88
2022-12-01T17:14:27.181Z,102167.06
2022-12-01T17:16:53.565Z,102160.69
2022-12-01T17:19:22.936Z,102161.91
2022-12-01T17:21:49.247Z,102153.19
2022-12-01T17:24:19.012Z,102156.91
2022-12-01T17:26:45.733Z,102157.72
2022-12-01T17:29:12.589Z,102152.56
2022-12-01T17:31:39.244Z,102154.41
2022-12-01T17:34:05.603Z,102158.69
2022-12-01T17:36:32.161Z,102150.19
2022-12-01T17:39:00.642Z,102154.16
2022-12-01T17:41:27.105Z,102154.78
2022-12-01T17:43:53.482Z,102155.25
2022-12-01T17:49:10.903Z,102152.63
2022-12-01T17:51:37.410Z,102151.78
2022-12-01T17:54:03.750Z,102154.91
2022-12-01T17:56:30.278Z,102145.63
2022-12-01T17:58:56.739Z,102142.34
2022-12-01T18:01:28.609Z,102142.59
2022-12-01T18:03:57.020Z,102143.88
2022-12-01T18:06:23.485Z,102138.94
2022-12-01T18:08:50.055Z,102140.44
2022-12-01T18:11:16.487Z,102140.66
2022-12-01T18:13:42.782Z,102148.53
2022-12-01T18:16:09.361Z,102151.28
2022-12-01T18:18:35.744Z,102153.19
2022-12-01T18:21:02.264Z,102146.41
2022-12-01T18:23:28.778Z,102147.03
2022-12-01T18:25:55.283Z,102151.00
2022-12-01T18:28:21.688Z,102144.59
2022-12-01T18:30:48.128Z,102144.19
2022-12-01T18:33:14.450Z,102145.47
2022-12-01T18:35:40.824Z,102147.56
2022-12-01T18:38:07.409Z,102144.50
2022-12-01T18:40:38.980Z,102140.34
2022-12-01T18:43:05.275Z,102143.03
2022-12-01T18:45:31.644Z,102139.97
2022-12-01T18:47:57.942Z,102144.31
2022-12-01T18:50:24.297Z,102139.75
2022-12-01T18:52:50.759Z,102141.88
2022-12-01T18:55:17.094Z,102136.25
2022-12-01T18:57:43.568Z,102140.63
2022-12-01T19:00:09.934Z,102145.00
2022-12-01T19:02:36.308Z,102140.22
2022-12-01T19:05:02.688Z,102142.72
2022-12-01T19:07:30.181Z,102136.09
2022-12-01T19:09:56.751Z,102139.84
2022-12-01T19:12:23.202Z,102129.09
2022-12-01T19:14:49.823Z,102137.38
2022-12-01T19:17:16.504Z,102126.63
2022-12-01T19:19:42.975Z,102134.13
2022-12-01T19:22:09.413Z,102130.19
2022-12-01T19:24:35.700Z,102129.78
2022-12-01T19:27:02.038Z,102135.41
2022-12-01T19:29:28.357Z,102132.91
2022-12-01T19:31:54.940Z,102135.59
2022-12-01T19:34:21.300Z,102135.78
2022-12-01T19:36:47.725Z,102135.78
2022-12-01T19:39:14.138Z,102130.41
2022-12-01T19:41:40.518Z,102131.25
2022-12-01T19:44:07.086Z,102132.91
2022-12-01T19:46:33.364Z,102131.25
2022-12-01T19:49:00.264Z,102132.06
2022-12-01T19:51:27.115Z,102130.81
2022-12-01T19:53:53.397Z,102134.78
2022-12-01T19:56:19.730Z,102135.81
2022-12-01T19:58:46.066Z,102133.78
2022-12-01T20:01:12.593Z,102133.97
2022-12-01T20:03:38.955Z,102131.69
2022-12-01T20:06:05.355Z,102139.19
2022-12-01T20:08:35.516Z,102139.19
2022-12-01T20:11:02.513Z,102135.44
2022-12-01T20:13:28.897Z,102132.56
2022-12-01T20:15:55.244Z,102129.66
2022-12-01T20:21:06.108Z,102129.72
2022-12-01T20:23:32.554Z,102130.72
2022-12-01T20:25:58.958Z,102132.41
2022-12-01T20:28:25.301Z,102130.13
2022-12-01T20:30:51.727Z,102130.75
2022-12-01T20:33:18.198Z,102129.72
2022-12-01T20:35:44.466Z,102126.84
2022-12-01T20:38:10.846Z,102124.13
2022-12-01T20:40:37.521Z,102120.00
2022-12-01T20:43:03.884Z,102125.41
2022-12-01T20:45:30.261Z,102130.78
2022-12-01T20:47:56.562Z,102130.16
2022-12-01T20:50:23.034Z,102129.13
2022-12-01T20:52:49.500Z,102125.59
2022-12-01T20:55:15.984Z,102127.66
2022-12-01T20:57:42.404Z,102123.91
2022-12-01T21:00:08.765Z,102121.22
2022-12-01T21:02:35.117Z,102123.91
2022-12-01T21:05:01.764Z,102128.72
2022-12-01T21:07:28.298Z,102124.97
2022-12-01T21:09:54.652Z,102124.16
2022-12-01T21:12:21.096Z,102126.84
2022-12-01T21:14:47.881Z,102134.69
2022-12-01T21:17:14.600Z,102131.81
2022-12-01T21:19:40.927Z,102126.63
2022-12-01T21:22:07.284Z,102122.28
2022-12-01T21:24:36.816Z,102129.31
2022-12-01T21:27:05.659Z,102129.13
2022-12-01T21:29:32.083Z,102129.53
2022-12-01T21:31:58.571Z,102133.25
2022-12-01T21:34:24.868Z,102124.34
2022-12-01T21:36:51.292Z,102121.00
2022-12-01T21:39:17.808Z,102127.66
2022-12-01T21:41:44.273Z,102125.56
2022-12-01T21:44:10.616Z,102130.31
2022-12-01T21:46:36.934Z,102125.16
2022-12-01T21:49:03.549Z,102128.88
2022-12-01T21:51:29.895Z,102125.78
2022-12-01T21:53:56.334Z,102122.06
2022-12-01T21:56:22.683Z,102125.59
2022-12-01T21:58:49.054Z,102126.41
2022-12-01T22:01:15.465Z,102125.59
2022-12-01T22:03:41.961Z,102129.94
2022-12-01T22:06:28.704Z,102116.06
2022-12-01T22:08:54.977Z,102130.97
2022-12-01T22:11:21.419Z,102133.03
2022-12-01T22:13:47.924Z,102123.47
2022-12-01T22:16:14.433Z,102127.38
2022-12-01T22:18:40.892Z,102125.28
2022-12-01T22:21:07.230Z,102121.78
2022-12-01T22:23:33.799Z,102120.31
2022-12-01T22:26:00.243Z,102112.84
2022-12-01T22:28:26.489Z,102120.09
2022-12-01T22:30:52.847Z,102114.25
2022-12-01T22:33:19.251Z,102114.25
2022-12-01T22:35:45.626Z,102105.56
2022-12-01T22:38:12.032Z,102103.06
2022-12-01T22:40:38.707Z,102105.78
2022-12-01T22:43:08.480Z,102099.13
2022-12-01T22:45:37.472Z,102100.97
2022-12-01T22:48:03.743Z,102106.56
2022-12-01T22:50:30.032Z,102097.25
2022-12-01T22:52:56.470Z,102100.94
2022-12-01T22:55:22.793Z,102099.88
2022-12-01T22:57:49.126Z,102093.47
2022-12-01T23:00:15.457Z,102092.41
2022-12-01T23:02:41.815Z,102084.72
2022-12-01T23:05:08.300Z,102084.31
2022-12-01T23:07:34.816Z,102086.78
2022-12-01T23:10:01.363Z,102086.13
2022-12-01T23:12:28.701Z,102087.53
2022-12-01T23:14:55.678Z,102085.91
2022-12-01T23:17:22.082Z,102084.44
2022-12-01T23:19:48.528Z,102086.91
2022-12-01T23:22:14.887Z,102078.19
2022-12-01T23:24:41.169Z,102082.09
2022-12-01T23:27:07.868Z,102079.59
2022-12-01T23:29:34.147Z,102074.84
2022-12-01T23:32:00.555Z,102077.72
2022-12-01T23:34:26.863Z,102071.69
2022-12-01T23:36:53.128Z,102066.53
2022-12-01T23:39:19.486Z,102067.53
2022-12-01T23:41:45.833Z,102067.94
2022-12-01T23:44:12.269Z,102068.13
2022-12-01T23:46:39.240Z,102072.84
2022-12-01T23:49:05.627Z,102071.38
2022-12-01T23:51:31.991Z,102071.59
2022-12-01T23:53:58.292Z,102075.50
2022-12-01T23:56:24.844Z,102074.03
2022-12-01T23:58:51.208Z,102067.00
